.
WxDataArchive / Data Records for 2009-01-19
2009-01-18 January 2009 2009-01-20

Data Records for Monday, 19 January 2009

Time	Temp	Chill	HIndex	Humid	Dewpt	 Wind 	HiWind	WindDir	Rain 	Barom 
-----	----	-----	------	-----	-----	------	------	-------	-----	----- 
00:00	11.7	11.7	11.7	74	5.0	0	2	225	0.00	29.812 
00:05	11.7	11.7	11.7	74	5.0	0	4	248	0.00	29.813 
00:10	11.7	11.7	11.7	74	5.0	0	2	248	0.00	29.812 
00:15	11.7	11.7	11.7	74	5.0	1	2	248	0.00	29.808 
00:20	11.7	11.7	11.7	74	5.0	0	3	248	0.00	29.808 
00:25	11.7	11.7	11.7	74	5.0	0	2	248	0.00	29.805 
00:30	11.7	11.7	11.7	74	5.0	0	2	248	0.00	29.804 
00:35	11.7	11.7	11.7	74	5.0	0	2	248	0.00	29.804 
00:40	11.7	11.7	11.7	75	5.3	0	2	248	0.00	29.803 
00:45	11.7	11.7	11.7	75	5.3	0	1	248	0.00	29.805 
00:50	11.7	11.7	11.7	75	5.3	0	1	248	0.00	29.805 
00:55	11.7	11.7	11.7	75	5.3	0	2	248	0.00	29.805 
01:00	11.7	11.7	11.7	75	5.3	0	1	248	0.00	29.803 
01:05	11.7	11.7	11.7	76	5.6	0	1	248	0.00	29.803 
01:10	11.7	11.7	11.7	76	5.6	0	2	248	0.00	29.803 
01:15	11.7	11.7	11.7	76	5.6	0	3	270	0.00	29.803 
01:20	11.9	11.9	11.9	76	5.8	0	1	270	0.00	29.802 
01:25	11.9	11.9	11.9	77	6.1	0	2	270	0.00	29.800 
01:30	11.9	11.9	11.9	77	6.1	0	1	270	0.00	29.801 
01:35	12.1	12.1	12.1	77	6.3	0	3	248	0.00	29.801 
01:40	12.1	12.1	12.1	77	6.3	0	1	248	0.00	29.801 
01:45	12.1	12.1	12.1	77	6.3	1	2	248	0.00	29.801 
01:50	12.3	12.3	12.3	77	6.5	0	1	248	0.00	29.799 
01:55	12.3	12.3	12.3	77	6.5	0	2	248	0.00	29.800 
02:00	12.3	12.3	12.3	77	6.5	0	2	248	0.00	29.800 
02:05	12.3	12.3	12.3	77	6.5	0	1	248	0.00	29.801 
02:10	12.3	12.3	12.3	77	6.5	0	1	248	0.00	29.802 
02:15	12.3	12.3	12.3	78	6.8	0	2	248	0.00	29.803 
02:20	12.1	12.1	12.1	78	6.6	0	1	248	0.00	29.804 
02:25	12.1	12.1	12.1	78	6.6	0	1	248	0.00	29.805 
02:30	12.1	12.1	12.1	78	6.6	0	2	248	0.00	29.804 
02:35	11.9	11.9	11.9	78	6.4	0	1	248	0.00	29.803 
02:40	11.7	11.7	11.7	78	6.2	0	1	248	0.00	29.803 
02:45	11.4	11.4	11.4	78	5.9	0	1	248	0.00	29.806 
02:50	11.2	11.2	11.2	78	5.7	0	2	248	0.00	29.806 
02:55	10.9	10.9	10.9	78	5.4	0	0	---	0.00	29.805 
03:00	10.5	10.5	10.5	78	5.0	0	1	248	0.00	29.805 
03:05	10.2	10.2	10.2	79	5.0	0	2	248	0.00	29.806 
03:10	10.0	10.0	10.0	79	4.8	0	1	248	0.00	29.808 
03:15	9.9	9.9	9.9	80	5.0	0	0	---	0.00	29.807 
03:20	9.7	9.7	9.7	80	4.8	0	0	---	0.00	29.807 
03:25	9.5	9.5	9.5	80	4.6	0	0	---	0.00	29.806 
03:30	9.3	9.3	9.3	80	4.4	0	0	---	0.00	29.808 
03:35	9.2	9.2	9.2	81	4.6	0	1	248	0.00	29.808 
03:40	9.2	9.2	9.2	81	4.6	0	0	---	0.00	29.807 
03:45	9.2	9.2	9.2	81	4.6	0	0	---	0.00	29.806 
03:50	9.2	9.2	9.2	82	4.8	0	1	248	0.00	29.806 
03:55	9.3	9.3	9.3	82	4.9	0	1	248	0.00	29.806 
04:00	9.5	9.5	9.5	83	5.4	0	1	248	0.00	29.804 
04:05	9.7	9.7	9.7	83	5.6	0	1	248	0.00	29.807 
04:10	9.9	9.9	9.9	83	5.8	0	1	248	0.00	29.807 
04:15	10.2	10.2	10.2	83	6.1	0	1	248	0.00	29.806 
04:20	10.2	10.2	10.2	83	6.1	0	1	248	0.00	29.806 
04:25	10.2	10.2	10.2	83	6.1	0	0	---	0.00	29.806 
04:30	10.0	10.0	10.0	83	5.9	0	0	---	0.00	29.807 
04:35	9.9	9.9	9.9	83	5.8	0	0	---	0.00	29.807 
04:40	9.7	9.7	9.7	83	5.6	0	0	---	0.00	29.808 
04:45	9.5	9.5	9.5	83	5.4	0	0	---	0.00	29.807 
04:50	9.5	9.5	9.5	83	5.4	0	1	248	0.00	29.807 
04:55	9.7	9.7	9.7	84	5.9	0	2	248	0.00	29.809 
05:00	9.9	9.9	9.9	84	6.1	0	1	248	0.00	29.809 
05:05	10.0	10.0	10.0	84	6.2	0	1	248	0.00	29.812 
05:10	10.2	10.2	10.2	84	6.3	0	2	248	0.00	29.810 
05:15	10.4	10.4	10.4	84	6.5	0	2	292	0.00	29.811 
05:20	10.5	10.5	10.5	85	6.9	0	2	292	0.00	29.811 
05:25	10.7	10.7	10.7	85	7.1	0	2	292	0.00	29.811 
05:30	10.7	10.7	10.7	85	7.1	0	1	292	0.00	29.812 
05:35	10.7	10.7	10.7	85	7.1	0	2	292	0.00	29.813 
05:40	10.9	10.9	10.9	86	7.6	0	1	292	0.00	29.813 
05:45	10.7	10.7	10.7	86	7.4	0	2	292	0.00	29.809 
05:50	10.7	10.7	10.7	86	7.4	0	0	---	0.00	29.809 
05:55	10.5	10.5	10.5	86	7.2	0	1	292	0.00	29.809 
06:00	10.5	10.5	10.5	86	7.2	0	1	292	0.00	29.809 
06:05	10.5	10.5	10.5	86	7.2	0	0	---	0.00	29.811 
06:10	10.4	10.4	10.4	86	7.1	0	0	---	0.00	29.811 
06:15	10.4	10.4	10.4	86	7.1	0	1	292	0.00	29.811 
06:20	10.4	10.4	10.4	86	7.1	0	2	292	0.00	29.812 
06:25	10.4	10.4	10.4	86	7.1	0	1	292	0.00	29.813 
06:30	10.4	10.4	10.4	86	7.1	0	2	292	0.00	29.814 
06:35	10.4	10.4	10.4	86	7.1	0	0	---	0.00	29.813 
06:40	10.2	10.2	10.2	86	6.9	0	1	292	0.00	29.813 
06:45	10.2	10.2	10.2	86	6.9	0	1	292	0.00	29.817 
06:50	10.0	10.0	10.0	86	6.7	0	2	292	0.00	29.820 
06:55	10.0	10.0	10.0	86	6.7	0	3	248	0.00	29.822 
07:00	9.9	9.9	9.9	86	6.6	0	1	248	0.00	29.822 
07:05	9.9	9.9	9.9	86	6.6	1	3	248	0.00	29.825 
07:10	9.7	9.7	9.7	86	6.4	0	2	338	0.00	29.825 
07:15	9.7	9.7	9.7	86	6.4	0	2	338	0.00	29.828 
07:20	9.7	9.7	9.7	86	6.4	0	2	338	0.00	29.825 
07:25	9.7	9.7	9.7	86	6.4	0	1	338	0.00	29.822 
07:30	9.5	9.5	9.5	86	6.2	1	3	270	0.00	29.820 
07:35	9.5	9.5	9.5	86	6.2	1	3	270	0.00	29.824 
07:40	9.3	9.3	9.3	86	6.0	0	1	270	0.00	29.824 
07:45	9.3	9.3	9.3	86	6.0	1	3	292	0.00	29.827 
07:50	9.3	9.3	9.3	86	6.0	0	2	248	0.00	29.830 
07:55	9.3	9.3	9.3	86	6.0	0	2	248	0.00	29.837 
08:00	9.3	9.3	9.3	85	5.7	1	4	0	0.00	29.843 
08:05	9.3	9.3	9.3	85	5.7	0	2	315	0.00	29.845 
08:10	9.3	9.3	9.3	85	5.7	0	2	315	0.00	29.846 
08:15	9.2	9.2	9.2	85	5.6	0	2	315	0.00	29.850 
08:20	9.3	9.3	9.3	85	5.7	0	3	315	0.00	29.853 
08:25	9.3	9.3	9.3	85	5.7	0	2	270	0.00	29.855 
08:30	9.5	9.5	9.5	85	5.9	0	1	0	0.00	29.850 
08:35	9.7	9.7	9.7	85	6.1	0	1	0	0.00	29.850 
08:40	9.9	9.9	9.9	86	6.6	0	4	0	0.00	29.846 
08:45	10.0	10.0	10.0	86	6.7	0	1	248	0.00	29.848 
08:50	10.4	10.4	10.4	86	7.1	0	2	248	0.00	29.849 
08:55	10.5	10.5	10.5	86	7.2	1	2	248	0.00	29.852 
09:00	10.7	10.7	10.7	86	7.4	0	1	248	0.00	29.855 
09:05	10.7	10.7	10.7	86	7.4	0	2	338	0.00	29.854 
09:10	10.9	10.9	10.9	86	7.6	0	1	338	0.00	29.854 
09:15	11.1	11.1	11.1	86	7.7	0	2	315	0.00	29.854 
09:20	11.1	11.1	11.1	86	7.7	0	1	292	0.00	29.851 
09:25	11.2	11.2	11.2	86	7.8	0	2	292	0.00	29.851 
09:30	11.2	11.2	11.2	86	7.8	0	3	292	0.00	29.855 
09:35	11.6	11.6	11.6	86	8.2	0	2	338	0.00	29.855 
09:40	11.7	11.7	11.7	86	8.3	1	3	270	0.00	29.856 
09:45	11.9	11.9	11.9	86	8.5	1	2	270	0.00	29.856 
09:50	12.1	12.1	12.1	85	8.5	1	3	270	0.00	29.855 
09:55	12.1	12.1	12.1	85	8.5	1	3	270	0.00	29.856 
10:00	12.1	12.1	12.1	85	8.5	1	2	270	0.00	29.855 
10:05	12.1	12.1	12.1	85	8.5	0	2	270	0.00	29.853 
10:10	12.4	12.4	12.4	85	8.8	0	2	270	0.00	29.853 
10:15	12.6	12.6	12.6	85	9.0	0	2	270	0.00	29.854 
10:20	12.9	12.9	12.9	85	9.3	1	2	270	0.00	29.856 
10:25	13.1	13.1	13.1	85	9.5	0	2	270	0.00	29.855 
10:30	13.3	13.3	13.3	85	9.7	0	1	270	0.00	29.856 
10:35	13.5	13.5	13.5	85	9.8	1	2	270	0.00	29.855 
10:40	13.6	13.6	13.6	85	9.9	1	2	270	0.00	29.855 
10:45	14.0	14.0	14.0	85	10.3	1	2	270	0.00	29.854 
10:50	14.1	14.1	14.1	85	10.4	1	3	270	0.00	29.854 
10:55	14.3	14.3	14.3	85	10.6	0	2	270	0.00	29.852 
11:00	14.3	14.3	14.3	85	10.6	1	3	270	0.00	29.853 
11:05	14.3	14.3	14.3	85	10.6	1	2	248	0.00	29.854 
11:10	14.6	14.6	14.6	84	10.7	1	3	248	0.00	29.854 
11:15	14.8	14.8	14.8	84	10.9	1	2	338	0.00	29.852 
11:20	14.9	14.9	14.9	84	11.0	1	3	0	0.00	29.854 
11:25	15.2	15.2	15.2	83	11.0	1	3	225	0.00	29.854 
11:30	15.6	15.6	15.6	82	11.1	0	2	338	0.00	29.853 
11:35	15.9	15.9	15.9	80	10.8	1	3	0	0.00	29.852 
11:40	16.1	16.1	16.1	78	10.5	1	3	338	0.00	29.852 
11:45	16.1	16.1	16.1	76	9.9	1	5	248	0.00	29.850 
11:50	16.1	16.1	16.1	76	9.9	1	3	270	0.00	29.849 
11:55	16.1	16.1	16.1	75	9.6	1	4	315	0.00	29.847 
12:00	16.4	16.4	16.4	75	9.9	1	3	248	0.00	29.844 
12:05	16.5	16.5	16.5	74	9.7	1	3	248	0.00	29.844 
12:10	16.7	16.7	16.7	74	9.9	1	3	248	0.00	29.840 
12:15	17.0	17.0	17.0	73	9.9	1	4	270	0.00	29.842 
12:20	17.2	17.2	17.2	72	9.8	1	4	292	0.00	29.842 
12:25	17.3	17.3	17.3	71	9.5	1	3	270	0.00	29.842 
12:30	17.5	17.5	17.5	71	9.7	1	5	315	0.00	29.840 
12:35	17.7	17.7	17.7	70	9.6	1	5	292	0.00	29.839 
12:40	17.5	17.5	17.5	70	9.4	1	5	292	0.00	29.837 
12:45	17.7	17.7	17.7	70	9.6	1	3	315	0.00	29.837 
12:50	18.0	18.0	18.0	69	9.6	1	3	315	0.00	29.837 
12:55	18.3	18.3	18.3	68	9.5	1	3	338	0.00	29.836 
13:00	18.3	18.3	18.3	67	9.2	2	5	270	0.00	29.836 
13:05	18.4	18.4	18.4	66	9.0	1	4	315	0.00	29.836 
13:10	18.6	18.6	18.6	66	9.2	1	3	270	0.00	29.835 
13:15	18.8	18.8	18.8	65	9.0	1	4	315	0.00	29.835 
13:20	18.9	18.9	18.9	65	9.1	1	3	292	0.00	29.834 
13:25	19.1	19.1	19.1	64	9.0	1	3	315	0.00	29.832 
13:30	18.9	18.9	18.9	64	8.8	1	4	315	0.00	29.831 
13:35	18.9	18.9	18.9	63	8.4	1	3	315	0.00	29.827 
13:40	19.1	19.1	19.1	63	8.6	2	11	270	0.00	29.824 
13:45	19.1	19.1	19.1	64	9.0	2	6	270	0.00	29.823 
13:50	18.9	18.9	18.9	63	8.4	2	5	315	0.00	29.824 
13:55	18.9	18.9	18.9	63	8.4	1	4	270	0.00	29.822 
14:00	19.2	19.2	19.2	63	8.7	1	4	315	0.00	29.821 
14:05	19.4	19.4	19.4	62	8.5	1	5	315	0.00	29.820 
14:10	19.5	19.5	19.5	62	8.6	1	4	338	0.00	29.820 
14:15	19.5	19.5	19.5	62	8.6	1	5	338	0.00	29.819 
14:20	19.7	19.7	19.7	62	8.8	1	3	315	0.00	29.818 
14:25	19.7	19.7	19.7	61	8.5	2	4	315	0.00	29.819 
14:30	19.7	19.7	19.7	61	8.5	1	4	338	0.00	29.819 
14:35	19.5	19.5	19.5	61	8.3	1	3	338	0.00	29.818 
14:40	19.9	19.9	19.9	61	8.7	1	3	248	0.00	29.817 
14:45	20.2	20.2	20.2	60	8.6	0	2	248	0.00	29.816 
14:50	20.5	20.5	20.5	60	8.9	0	2	248	0.00	29.814 
14:55	20.6	20.6	20.6	59	8.6	1	3	270	0.00	29.817 
15:00	20.6	20.6	20.6	58	8.2	1	3	0	0.00	29.817 
15:05	21.1	21.1	21.1	59	9.0	1	3	248	0.00	29.819 
15:10	21.4	21.4	21.4	58	8.9	1	3	248	0.00	29.820 
15:15	21.1	21.1	21.1	57	8.3	1	3	248	0.00	29.820 
15:20	21.1	21.1	21.1	58	8.7	1	3	248	0.00	29.821 
15:25	21.1	21.1	21.1	57	8.3	1	5	338	0.00	29.821 
15:30	21.1	21.1	21.1	57	8.3	1	5	270	0.00	29.823 
15:35	20.8	20.8	20.8	56	7.6	1	2	338	0.00	29.824 
15:40	20.6	20.6	20.6	56	7.4	1	4	292	0.00	29.828 
15:45	20.8	20.8	20.8	57	8.0	1	4	270	0.00	29.832 
15:50	20.6	20.6	20.6	56	7.4	1	5	338	0.00	29.833 
15:55	20.5	20.5	20.5	56	7.3	1	4	315	0.00	29.835 
16:00	20.5	20.5	20.5	56	7.3	0	2	225	0.00	29.834 
16:05	20.5	20.5	20.5	57	7.7	0	2	270	0.00	29.835 
16:10	20.3	20.3	20.3	57	7.5	1	2	292	0.00	29.836 
16:15	20.5	20.5	20.5	58	8.1	1	3	248	0.00	29.835 
16:20	20.5	20.5	20.5	58	8.1	0	2	248	0.00	29.835 
16:25	20.3	20.3	20.3	57	7.5	1	3	338	0.00	29.836 
16:30	20.2	20.2	20.2	58	7.8	0	2	338	0.00	29.836 
16:35	20.2	20.2	20.2	58	7.8	1	3	270	0.00	29.836 
16:40	20.0	20.0	20.0	59	8.0	0	2	248	0.00	29.835 
16:45	20.0	20.0	20.0	60	8.4	0	2	248	0.00	29.836 
16:50	19.9	19.9	19.9	60	8.3	0	1	248	0.00	29.836 
16:55	19.5	19.5	19.5	61	8.3	0	2	248	0.00	29.835 
17:00	19.5	19.5	19.5	61	8.3	0	1	248	0.00	29.836 
17:05	19.4	19.4	19.4	61	8.2	1	3	248	0.00	29.836 
17:10	19.4	19.4	19.4	61	8.2	0	2	315	0.00	29.838 
17:15	19.2	19.2	19.2	61	8.0	0	1	315	0.00	29.839 
17:20	19.1	19.1	19.1	62	8.3	0	2	315	0.00	29.840 
17:25	19.1	19.1	19.1	62	8.3	0	2	270	0.00	29.839 
17:30	18.9	18.9	18.9	63	8.4	0	2	270	0.00	29.840 
17:35	18.6	18.6	18.6	63	8.1	0	1	270	0.00	29.840 
17:40	18.4	18.4	18.4	63	7.9	0	0	---	0.00	29.843 
17:45	18.1	18.1	18.1	64	8.0	0	0	---	0.00	29.845 
17:50	17.8	17.8	17.8	65	8.1	0	1	270	0.00	29.847 
17:55	17.5	17.5	17.5	65	7.8	0	0	---	0.00	29.850 
18:00	17.3	17.3	17.3	65	7.6	0	0	---	0.00	29.852 
18:05	16.9	16.9	16.9	66	7.5	0	0	---	0.00	29.856 
18:10	16.5	16.5	16.5	67	7.5	0	0	---	0.00	29.858 
18:15	16.4	16.4	16.4	68	7.7	0	0	---	0.00	29.858 
18:20	16.2	16.2	16.2	68	7.5	0	0	---	0.00	29.864 
18:25	16.1	16.1	16.1	68	7.4	0	0	---	0.00	29.869 
18:30	15.7	15.7	15.7	69	7.4	0	0	---	0.00	29.871 
18:35	15.6	15.6	15.6	69	7.3	0	0	---	0.00	29.872 
18:40	15.6	15.6	15.6	69	7.3	0	0	---	0.00	29.871 
18:45	15.4	15.4	15.4	69	7.1	0	0	---	0.00	29.876 
18:50	15.4	15.4	15.4	69	7.1	0	0	---	0.00	29.877 
18:55	15.4	15.4	15.4	69	7.1	0	0	---	0.00	29.884 
19:00	15.4	15.4	15.4	70	7.4	0	1	270	0.00	29.883 
19:05	15.4	15.4	15.4	69	7.1	0	0	---	0.00	29.885 
19:10	15.2	15.2	15.2	69	6.9	0	0	---	0.00	29.887 
19:15	14.9	14.9	14.9	69	6.6	0	0	---	0.00	29.888 
19:20	14.6	14.6	14.6	70	6.6	0	0	---	0.00	29.888 
19:25	14.4	14.4	14.4	70	6.4	0	0	---	0.00	29.889 
19:30	14.1	14.1	14.1	71	6.5	0	0	---	0.00	29.890 
19:35	13.8	13.8	13.8	71	6.2	0	0	---	0.00	29.890 
19:40	13.5	13.5	13.5	72	6.2	0	0	---	0.00	29.891 
19:45	12.9	12.9	12.9	72	5.6	0	0	---	0.00	29.892 
19:50	12.6	12.6	12.6	73	5.6	0	0	---	0.00	29.891 
19:55	12.4	12.4	12.4	74	5.7	0	0	---	0.00	29.894 
20:00	12.1	12.1	12.1	74	5.4	0	0	---	0.00	29.894 
20:05	11.7	11.7	11.7	74	5.0	0	0	---	0.00	29.892 
20:10	11.2	11.2	11.2	75	4.9	0	0	---	0.00	29.892 
20:15	10.9	10.9	10.9	75	4.6	0	0	---	0.00	29.893 
20:20	10.5	10.5	10.5	76	4.5	0	0	---	0.00	29.893 
20:25	10.5	10.5	10.5	77	4.7	0	0	---	0.00	29.893 
20:30	10.9	10.9	10.9	79	5.7	0	0	---	0.00	29.894 
20:35	10.9	10.9	10.9	79	5.7	0	0	---	0.00	29.894 
20:40	10.7	10.7	10.7	79	5.5	0	0	---	0.00	29.896 
20:45	10.7	10.7	10.7	80	5.8	0	0	---	0.00	29.897 
20:50	10.7	10.7	10.7	80	5.8	0	0	---	0.00	29.897 
20:55	10.5	10.5	10.5	80	5.6	0	0	---	0.00	29.899 
21:00	10.0	10.0	10.0	80	5.1	0	0	---	0.00	29.902 
21:05	9.9	9.9	9.9	80	5.0	0	0	---	0.00	29.902 
21:10	9.7	9.7	9.7	81	5.1	0	0	---	0.00	29.903 
21:15	9.7	9.7	9.7	81	5.1	0	0	---	0.00	29.904 
21:20	9.7	9.7	9.7	81	5.1	0	0	---	0.00	29.903 
21:25	9.3	9.3	9.3	81	4.7	0	1	270	0.00	29.906 
21:30	9.0	9.0	9.0	81	4.4	0	0	---	0.00	29.908 
21:35	8.8	8.8	8.8	81	4.2	0	0	---	0.00	29.908 
21:40	8.8	8.8	8.8	82	4.5	0	0	---	0.00	29.907 
21:45	8.8	8.8	8.8	82	4.5	0	0	---	0.00	29.907 
21:50	8.6	8.6	8.6	82	4.3	0	0	---	0.00	29.908 
21:55	8.4	8.4	8.4	82	4.1	0	0	---	0.00	29.909 
22:00	8.3	8.3	8.3	83	4.2	0	0	---	0.00	29.909 
22:05	8.1	8.1	8.1	83	4.0	0	0	---	0.00	29.908 
22:10	8.1	8.1	8.1	83	4.0	0	0	---	0.00	29.908 
22:15	7.7	7.7	7.7	83	3.6	0	0	---	0.00	29.909 
22:20	7.6	7.6	7.6	83	3.5	0	0	---	0.00	29.908 
22:25	7.4	7.4	7.4	83	3.3	0	0	---	0.00	29.909 
22:30	7.2	7.2	7.2	83	3.1	0	0	---	0.00	29.914 
22:35	7.0	7.0	7.0	83	2.9	0	0	---	0.00	29.916 
22:40	6.9	6.9	6.9	83	2.9	0	0	---	0.00	29.918 
22:45	6.9	6.9	6.9	83	2.9	0	0	---	0.00	29.918 
22:50	6.9	6.9	6.9	84	3.1	0	0	---	0.00	29.917 
22:55	6.9	6.9	6.9	84	3.1	0	0	---	0.00	29.917 
23:00	6.9	6.9	6.9	84	3.1	0	0	---	0.00	29.917 
23:05	6.5	6.5	6.5	83	2.5	0	0	---	0.00	29.916 
23:10	6.3	6.3	6.3	83	2.3	0	0	---	0.00	29.916 
23:15	6.1	6.1	6.1	83	2.1	0	0	---	0.00	29.918 
23:20	6.0	6.0	6.0	83	2.0	0	0	---	0.00	29.918 
23:25	6.0	6.0	6.0	83	2.0	0	0	---	0.00	29.918 
23:30	6.0	6.0	6.0	83	2.0	0	1	270	0.00	29.920 
23:35	6.0	6.0	6.0	83	2.0	0	1	270	0.00	29.920 
23:40	6.0	6.0	6.0	83	2.0	0	0	---	0.00	29.919 
23:45	6.1	6.1	6.1	83	2.1	0	0	---	0.00	29.920 
23:50	6.1	6.1	6.1	84	2.3	0	0	---	0.00	29.921 
23:55	6.5	6.5	6.5	84	2.7	0	0	---	0.00	29.920 

CoCoRaHS
IN-AL-39
A2 Web Hosting
Creative Commons License
GoDaddy
search engine by freefind advanced

loaded 2018-11-15 15:40:16 • last modified 2010-11-18 10:43:29
Privacy PolicyDisclaimer
• wx.awcolley.com is powered by PmWiki v.2002016 •
• all content (unless otherwise noted) © 2018 A W Colley